Airfield :
LOGIN :

Register | Disclaimer

   EN    FR    IT 

 










Legend :    VFR   Marginal VFR   IFR   Intensive IFR   Very Intensive IFR
Visi :
Ceiling :
>= 8 km
>= 3000ft
5 to 8 km
1000 to 3000 ft
1500m to 5 km
500 to 1000 ft
800 to 1500m
200 to 500 ft
< 800m
< 200 ft
Symbols :   Thunderstorms  Fog  Heavy snow  Heavy precipitations  Wind > 20 kt
SIGMETs :     Misc.  Thunderstorms  Icing  Turbulence  Mountain Waves  Volcanic Ashes






- Airport Elevation : 614 ft
- IATA code : CRL


EBCI - Charleroi

CURRENT METAR :
  • 262320Z 21010KT 9999 SCT045 02/M03 Q1017 TEMPO 1500 SN BR BKN004

EXPIRED METARs :
  • 262250Z 20012KT CAVOK 02/M04 Q1017 NOSIG
  • 262220Z 19010KT CAVOK 02/M03 Q1017 NOSIG
  • 262150Z 19010KT CAVOK 02/M03 Q1017 NOSIG
  • 262120Z 19013KT CAVOK 02/M03 Q1017 NOSIG
  • 262050Z 19010KT CAVOK 02/M03 Q1018 NOSIG

TAF TAF EBCI
Valid from the 27 at 00:00 until the 28 at 06:00 UTC


262320Z 2700/2806 19013KT 8000 SCT022
BECMG 2700/2702 SCT007 BKN011
TEMPO 2702/2705 1100 SN BKN002
TEMPO 2705/2801 2000 DZ BKN005
PROB40
TEMPO 2705/2714 0300 FG BKN001
PROB30
TEMPO 2714/2801 SCT014
BECMG 2801/2803 13005KT
TEMPO 2801/2806 2000 RADZ RA BKN003



MET'MAP, your aeronautical weather chart ! - Copyright ORBIFLY December 2007 - Disclaimer

ORBIFLY MET'MAP TEAM :

Programming & Development : Alexandra Zaïnal
Concept & original design : Baudouin d'Aumeries
Assistance for programming : Marc-Olivier Méhu
Technical & hardware support : Manuel Goepfert

Contact : metmap@orbifly.com




SOURCES & CREDITS :

   NOAA